Acton, Maine
Current Conditions -  °F | °C
As of 5:35 AM on Sunday 26 Oct 2014 (Local Time) from KSFM Reporting Station
Clear Clear  
Wind Chill: 38°   Ceiling: Unl
Heat Index: 43°   Visibility: 9mi
Dew Point: 39°   Wind: 8mph
Humidity: 87%   Direction: 190°S
Pressure: 29.42"   Gusts: NA
Location:  43.53°N, 70.91°W
Report Text: KSFM 260935Z AUTO 19007KT 9SM CLR 06/04 A2942 RMK AO1
Loading
Personal Weather Stations






























Interactive Weather Map
Tropical Storm Tracking
New forecast layout! Learn more

10-Day Weather Forecast

Advertisements
Track Severe Weather on mobile